createdAt,value
2022-07-26T00:01:20.095Z,5.18
2022-07-26T00:03:47.920Z,6.03
2022-07-26T00:06:14.608Z,6.57
2022-07-26T00:08:41.773Z,7.57
2022-07-26T00:11:08.490Z,5.22
2022-07-26T00:13:35.352Z,5.55
2022-07-26T00:16:04.018Z,5.20
2022-07-26T00:18:30.737Z,5.72
2022-07-26T00:20:57.849Z,4.40
2022-07-26T00:23:24.620Z,5.68
2022-07-26T00:25:51.314Z,8.13
2022-07-26T00:28:17.936Z,9.88
2022-07-26T00:30:44.656Z,7.05
2022-07-26T00:33:13.712Z,5.07
2022-07-26T00:35:40.412Z,5.78
2022-07-26T00:38:07.210Z,7.22
2022-07-26T00:40:34.676Z,5.28
2022-07-26T00:43:01.317Z,11.90
2022-07-26T00:45:29.932Z,8.32
2022-07-26T00:47:56.621Z,6.53
2022-07-26T00:50:23.363Z,5.68
2022-07-26T00:52:50.677Z,6.25
2022-07-26T00:55:18.465Z,6.85
2022-07-26T00:57:45.842Z,11.32
2022-07-26T01:00:21.706Z,6.95
2022-07-26T01:02:48.451Z,5.90
2022-07-26T01:05:16.105Z,9.23
2022-07-26T01:07:43.737Z,5.47
2022-07-26T01:10:12.723Z,6.32
2022-07-26T01:12:43.552Z,6.32
2022-07-26T01:15:12.976Z,12.07
2022-07-26T01:17:39.877Z,10.30
2022-07-26T01:20:09.121Z,6.10
2022-07-26T01:22:35.860Z,6.88
2022-07-26T01:25:04.935Z,8.85
2022-07-26T01:27:34.303Z,7.57
2022-07-26T01:30:03.305Z,6.15
2022-07-26T01:32:32.188Z,8.80
2022-07-26T01:34:58.830Z,7.53
2022-07-26T01:37:25.517Z,10.52
2022-07-26T01:39:52.173Z,9.93
2022-07-26T01:42:18.784Z,7.85
2022-07-26T01:44:46.838Z,7.70
2022-07-26T01:47:13.482Z,9.00
2022-07-26T01:49:40.096Z,10.90
2022-07-26T01:52:06.777Z,9.02
2022-07-26T01:54:33.451Z,9.55
2022-07-26T01:57:00.132Z,7.70
2022-07-26T01:59:26.792Z,11.95
2022-07-26T02:01:53.501Z,8.90
2022-07-26T02:04:39.137Z,10.82
2022-07-26T02:07:05.772Z,8.80
2022-07-26T02:09:40.126Z,12.43
2022-07-26T02:12:07.110Z,8.15
2022-07-26T02:14:33.873Z,7.35
2022-07-26T02:17:00.729Z,11.70
2022-07-26T02:19:31.668Z,9.95
2022-07-26T02:21:58.928Z,11.30
2022-07-26T02:24:32.356Z,8.65
2022-07-26T02:27:00.335Z,8.95
2022-07-26T02:29:27.269Z,10.55
2022-07-26T02:31:54.862Z,12.43
2022-07-26T02:34:21.521Z,10.35
2022-07-26T02:36:48.316Z,10.60
2022-07-26T02:39:15.246Z,14.57
2022-07-26T02:41:42.185Z,15.23
2022-07-26T02:44:11.214Z,15.82
2022-07-26T02:46:38.775Z,14.45
2022-07-26T02:49:05.660Z,17.55
2022-07-26T02:51:32.507Z,11.18
2022-07-26T02:53:59.132Z,10.70
2022-07-26T02:56:27.900Z,16.88
2022-07-26T02:58:56.739Z,10.65
2022-07-26T03:01:25.676Z,10.32
2022-07-26T03:03:52.432Z,12.80
2022-07-26T03:06:19.849Z,12.82
2022-07-26T03:08:47.672Z,11.80
2022-07-26T03:11:14.442Z,10.07
2022-07-26T03:13:41.331Z,15.23
2022-07-26T03:16:08.224Z,11.43
2022-07-26T03:18:35.029Z,12.80
2022-07-26T03:21:02.842Z,11.73
2022-07-26T03:23:33.385Z,13.02
2022-07-26T03:26:01.672Z,11.70
2022-07-26T03:28:32.275Z,10.32
2022-07-26T03:30:59.285Z,11.20
2022-07-26T03:33:25.992Z,10.93
2022-07-26T03:35:52.698Z,11.95
2022-07-26T03:38:19.725Z,10.57
2022-07-26T03:40:46.336Z,14.02
2022-07-26T03:43:12.968Z,11.85
2022-07-26T03:45:39.631Z,10.48
2022-07-26T03:48:07.577Z,11.35
2022-07-26T03:50:34.325Z,12.27
2022-07-26T03:53:00.993Z,8.20
2022-07-26T03:55:48.287Z,9.15
2022-07-26T03:58:14.985Z,10.88
2022-07-26T04:00:43.908Z,11.77
2022-07-26T04:03:10.549Z,9.93
2022-07-26T04:05:37.353Z,9.02
2022-07-26T04:08:04.495Z,11.10
2022-07-26T04:10:31.297Z,9.57
2022-07-26T04:12:57.952Z,10.38
2022-07-26T04:15:24.554Z,9.32
2022-07-26T04:17:51.292Z,9.65
2022-07-26T04:20:18.208Z,10.02
2022-07-26T04:22:45.154Z,8.75
2022-07-26T04:25:12.578Z,9.93
2022-07-26T04:27:39.336Z,8.23
2022-07-26T04:30:12.354Z,8.35
2022-07-26T04:32:43.816Z,7.90
2022-07-26T04:35:12.542Z,10.10
2022-07-26T04:37:43.223Z,10.10
2022-07-26T04:40:13.008Z,9.68
2022-07-26T04:42:39.945Z,11.90
2022-07-26T04:45:08.457Z,8.05
2022-07-26T04:47:36.589Z,8.80
2022-07-26T04:50:04.746Z,9.23
2022-07-26T04:52:31.379Z,7.45
2022-07-26T04:54:59.414Z,6.35
2022-07-26T04:57:26.048Z,9.05
2022-07-26T05:00:09.974Z,6.50
2022-07-26T05:02:39.491Z,5.82
2022-07-26T05:05:07.404Z,7.72
2022-07-26T05:07:45.314Z,9.75
2022-07-26T05:10:12.887Z,8.35
2022-07-26T05:12:39.989Z,4.55
2022-07-26T05:15:13.872Z,5.70
2022-07-26T05:20:10.304Z,4.20
2022-07-26T05:22:37.249Z,5.45
2022-07-26T05:25:05.356Z,7.07
2022-07-26T05:27:34.844Z,5.65
2022-07-26T05:30:01.948Z,6.32
2022-07-26T05:32:30.716Z,3.17
2022-07-26T05:34:57.428Z,7.15
2022-07-26T05:37:24.116Z,5.70
2022-07-26T05:39:50.800Z,4.18
2022-07-26T05:42:17.526Z,5.82
2022-07-26T05:44:45.870Z,3.92
2022-07-26T05:47:13.081Z,5.50
2022-07-26T05:49:40.608Z,5.35
2022-07-26T05:52:08.575Z,9.95
2022-07-26T05:54:35.868Z,6.82
2022-07-26T05:57:02.679Z,3.83
2022-07-26T05:59:29.433Z,5.15
2022-07-26T06:01:56.703Z,4.03
2022-07-26T06:04:25.938Z,5.30
2022-07-26T06:06:54.917Z,5.15
2022-07-26T06:09:24.329Z,5.35
2022-07-26T06:11:51.422Z,4.68
2022-07-26T06:14:18.433Z,9.10
2022-07-26T06:16:46.554Z,12.55
2022-07-26T06:19:13.620Z,5.40
2022-07-26T06:21:40.317Z,4.55
2022-07-26T06:24:07.274Z,4.38
2022-07-26T06:26:36.500Z,5.40
2022-07-26T06:29:04.186Z,5.47
2022-07-26T06:31:33.108Z,7.28
2022-07-26T06:34:02.028Z,6.03
2022-07-26T06:36:31.144Z,5.60
2022-07-26T06:38:58.206Z,3.90
2022-07-26T06:41:24.955Z,3.90
2022-07-26T06:43:51.666Z,5.55
2022-07-26T06:46:21.079Z,4.10
2022-07-26T06:48:52.744Z,4.85
2022-07-26T06:51:19.991Z,3.67
2022-07-26T06:53:46.817Z,7.60
2022-07-26T06:56:17.233Z,6.35
2022-07-26T06:58:45.997Z,4.05
2022-07-26T07:01:51.519Z,4.50
2022-07-26T07:04:01.361Z,3.60
2022-07-26T07:06:28.000Z,4.95
2022-07-26T07:08:54.617Z,10.75
2022-07-26T07:11:22.214Z,3.30
2022-07-26T07:13:49.306Z,9.50
2022-07-26T07:16:16.138Z,3.50
2022-07-26T07:18:42.880Z,5.07
2022-07-26T07:21:09.550Z,3.83
2022-07-26T07:23:36.245Z,4.38
2022-07-26T07:26:02.974Z,2.78
2022-07-26T07:28:32.445Z,6.22
2022-07-26T07:31:01.769Z,6.43
2022-07-26T07:33:36.573Z,13.18
2022-07-26T07:36:17.869Z,6.80
2022-07-26T07:38:45.750Z,4.65
2022-07-26T07:41:12.470Z,9.40
2022-07-26T07:43:39.080Z,4.20
2022-07-26T07:46:06.719Z,3.38
2022-07-26T07:48:34.124Z,3.65
2022-07-26T07:51:00.793Z,5.78
2022-07-26T07:53:27.768Z,5.85
2022-07-26T07:55:59.492Z,4.00
2022-07-26T07:58:27.987Z,4.65
2022-07-26T08:00:55.146Z,7.10
2022-07-26T08:03:21.952Z,8.02
2022-07-26T08:05:49.933Z,2.70
2022-07-26T08:08:18.454Z,3.38
2022-07-26T08:10:51.658Z,4.93
2022-07-26T08:13:21.610Z,4.53
2022-07-26T08:15:52.919Z,9.07
2022-07-26T08:18:21.680Z,6.53
2022-07-26T08:20:49.601Z,7.25
2022-07-26T08:23:16.549Z,4.13
2022-07-26T08:25:55.549Z,3.50
2022-07-26T08:28:46.359Z,5.47
2022-07-26T08:31:11.390Z,4.75
2022-07-26T08:33:40.734Z,4.35
2022-07-26T08:36:11.713Z,2.88
2022-07-26T08:38:38.353Z,2.83
2022-07-26T08:41:05.062Z,3.60
2022-07-26T08:43:31.732Z,5.70
2022-07-26T08:46:11.647Z,4.20
2022-07-26T08:48:39.531Z,7.93
2022-07-26T08:51:11.041Z,8.60
2022-07-26T08:53:39.028Z,5.53
2022-07-26T08:56:07.496Z,4.95
2022-07-26T08:58:36.280Z,6.05
2022-07-26T09:01:10.736Z,7.32
2022-07-26T09:03:42.796Z,3.80
2022-07-26T09:06:20.989Z,2.55
2022-07-26T09:08:50.285Z,3.03
2022-07-26T09:11:26.039Z,4.35
2022-07-26T09:14:05.239Z,7.03
2022-07-26T09:16:35.123Z,2.53
2022-07-26T09:19:25.051Z,4.05
2022-07-26T09:21:52.300Z,2.53
2022-07-26T09:24:42.637Z,7.93
2022-07-26T09:27:18.120Z,3.53
2022-07-26T09:29:48.072Z,6.28
2022-07-26T09:32:26.124Z,7.22
2022-07-26T09:34:59.193Z,6.60
2022-07-26T09:37:37.382Z,6.88
2022-07-26T09:40:07.695Z,4.55
2022-07-26T09:42:34.609Z,4.03
2022-07-26T09:45:02.057Z,2.20
2022-07-26T09:47:39.101Z,3.65
2022-07-26T09:50:27.708Z,6.10
2022-07-26T09:53:01.302Z,3.72
2022-07-26T09:55:36.467Z,1.63
2022-07-26T09:58:10.397Z,2.83
2022-07-26T10:00:37.221Z,6.78
2022-07-26T10:03:04.182Z,3.13
2022-07-26T10:05:33.037Z,3.38
2022-07-26T10:08:00.292Z,3.55
2022-07-26T10:10:31.947Z,3.35
2022-07-26T10:12:59.411Z,2.55
2022-07-26T10:15:36.086Z,1.73
2022-07-26T10:18:05.192Z,1.95
2022-07-26T10:20:43.654Z,3.70
2022-07-26T10:23:31.813Z,6.50
2022-07-26T10:26:00.476Z,2.72
2022-07-26T10:28:29.639Z,2.67
2022-07-26T10:31:21.310Z,5.03
2022-07-26T10:33:49.616Z,7.68
2022-07-26T10:36:42.567Z,2.83
2022-07-26T10:39:16.553Z,2.47
2022-07-26T10:41:48.060Z,1.50
2022-07-26T10:44:23.811Z,2.80
2022-07-26T10:46:58.350Z,2.70
2022-07-26T10:49:40.105Z,1.77
2022-07-26T10:52:31.319Z,3.88
2022-07-26T10:55:00.560Z,0.90
2022-07-26T10:57:29.212Z,5.75
2022-07-26T10:59:57.566Z,4.15
2022-07-26T11:02:32.501Z,2.38
2022-07-26T11:05:04.236Z,0.80
2022-07-26T11:07:31.752Z,2.15
2022-07-26T11:10:00.429Z,0.88
2022-07-26T11:12:27.850Z,1.48
2022-07-26T11:14:54.469Z,0.68
2022-07-26T11:17:30.749Z,3.50
2022-07-26T11:19:58.261Z,1.65
2022-07-26T11:22:32.021Z,1.60
2022-07-26T11:24:58.696Z,1.90
2022-07-26T11:27:25.330Z,3.22
2022-07-26T11:29:51.996Z,1.00
2022-07-26T11:32:25.439Z,3.22
2022-07-26T11:35:02.835Z,2.63
2022-07-26T11:37:32.118Z,1.83
2022-07-26T11:39:58.811Z,4.30
2022-07-26T11:42:25.788Z,2.97
2022-07-26T11:44:54.177Z,8.85
2022-07-26T11:47:25.324Z,6.25
2022-07-26T11:52:40.397Z,1.42
2022-07-26T11:55:07.701Z,1.20
2022-07-26T11:57:34.355Z,2.85
2022-07-26T12:00:01.749Z,0.90
2022-07-26T12:02:30.680Z,2.88
2022-07-26T12:05:19.419Z,3.72
2022-07-26T12:08:03.973Z,2.17
2022-07-26T12:10:30.812Z,1.80
2022-07-26T12:13:11.933Z,3.03
2022-07-26T12:15:47.737Z,2.40
2022-07-26T12:18:26.346Z,3.22
2022-07-26T12:21:08.367Z,2.50
2022-07-26T12:23:48.379Z,5.68
2022-07-26T12:26:19.861Z,1.90
2022-07-26T12:28:46.563Z,3.92
2022-07-26T12:31:30.572Z,1.95
2022-07-26T12:33:58.372Z,3.65
2022-07-26T12:36:28.351Z,4.07
2022-07-26T12:39:00.797Z,3.47
2022-07-26T12:41:34.192Z,5.03
2022-07-26T12:44:01.824Z,1.83
2022-07-26T12:46:33.378Z,1.20
2022-07-26T12:49:00.885Z,2.65
2022-07-26T12:51:28.239Z,3.20
2022-07-26T12:53:55.060Z,4.88
2022-07-26T12:56:21.770Z,2.17
2022-07-26T12:58:48.464Z,1.92
2022-07-26T13:01:15.283Z,3.97
2022-07-26T13:03:41.967Z,5.78
2022-07-26T13:06:08.641Z,2.38
2022-07-26T13:08:35.262Z,1.63
2022-07-26T13:11:01.950Z,1.88
2022-07-26T13:13:28.702Z,3.88
2022-07-26T13:15:55.365Z,1.25
2022-07-26T13:18:21.965Z,2.17
2022-07-26T13:20:48.684Z,3.95
2022-07-26T13:23:21.338Z,0.77
2022-07-26T13:25:49.140Z,4.33
2022-07-26T13:28:17.103Z,1.75
2022-07-26T13:30:44.158Z,5.55
2022-07-26T13:33:11.282Z,1.83
2022-07-26T13:35:41.379Z,0.63
2022-07-26T13:38:08.553Z,3.42
2022-07-26T13:40:36.155Z,5.35
2022-07-26T13:43:03.470Z,0.50
2022-07-26T13:45:30.770Z,1.50
2022-07-26T13:47:59.153Z,1.60
2022-07-26T13:50:27.887Z,2.10
2022-07-26T13:52:56.485Z,4.18
2022-07-26T13:55:24.265Z,5.32
2022-07-26T13:57:56.922Z,1.27
2022-07-26T14:00:25.993Z,8.93
2022-07-26T14:02:53.467Z,0.85
2022-07-26T14:05:20.375Z,1.33
2022-07-26T14:07:47.209Z,4.43
2022-07-26T14:10:14.013Z,0.70
2022-07-26T14:12:40.900Z,1.90
2022-07-26T14:15:16.655Z,2.35
2022-07-26T14:17:47.281Z,2.08
2022-07-26T14:20:17.062Z,1.35
2022-07-26T14:22:44.395Z,1.60
2022-07-26T14:25:11.271Z,1.20
2022-07-26T14:27:37.971Z,0.90
2022-07-26T14:30:05.143Z,4.65
2022-07-26T14:32:31.929Z,1.48
2022-07-26T14:34:58.869Z,1.50
2022-07-26T14:37:41.934Z,0.60
2022-07-26T14:40:12.510Z,2.70
2022-07-26T14:42:39.326Z,1.50
2022-07-26T14:45:06.911Z,1.67
2022-07-26T14:47:33.596Z,2.63
2022-07-26T14:50:06.125Z,2.25
2022-07-26T14:52:33.905Z,5.67
2022-07-26T14:55:00.527Z,2.95
2022-07-26T14:57:27.457Z,4.30
2022-07-26T14:59:56.554Z,4.28
2022-07-26T15:02:25.440Z,1.95
2022-07-26T15:04:52.528Z,3.58
2022-07-26T15:07:21.474Z,2.65
2022-07-26T15:09:48.166Z,2.03
2022-07-26T15:12:14.792Z,2.55
2022-07-26T15:14:45.492Z,0.57
2022-07-26T15:17:13.554Z,8.07
2022-07-26T15:19:40.517Z,3.50
2022-07-26T15:22:07.385Z,0.70
2022-07-26T15:24:39.322Z,6.22
2022-07-26T15:27:06.541Z,1.33
2022-07-26T15:29:33.209Z,3.10
2022-07-26T15:31:59.968Z,2.20
2022-07-26T15:34:26.605Z,2.33
2022-07-26T15:36:53.261Z,6.55
2022-07-26T15:39:20.086Z,3.25
2022-07-26T15:41:48.507Z,1.40
2022-07-26T15:44:19.331Z,2.90
2022-07-26T15:46:49.530Z,1.55
2022-07-26T15:49:18.220Z,2.58
2022-07-26T15:51:45.101Z,2.85
2022-07-26T15:54:15.079Z,2.45
2022-07-26T15:56:42.977Z,1.27
2022-07-26T15:59:09.843Z,6.00
2022-07-26T16:01:37.165Z,2.80
2022-07-26T16:04:05.309Z,3.95
2022-07-26T16:06:35.667Z,2.42
2022-07-26T16:09:16.626Z,6.32
2022-07-26T16:11:44.325Z,0.80
2022-07-26T16:14:11.081Z,2.35
2022-07-26T16:16:37.958Z,4.25
2022-07-26T16:19:04.668Z,2.33
2022-07-26T16:21:32.202Z,0.98
2022-07-26T16:24:02.992Z,4.47
2022-07-26T16:26:32.945Z,0.77
2022-07-26T16:29:00.585Z,2.45
2022-07-26T16:31:27.374Z,0.90
2022-07-26T16:33:56.331Z,3.65
2022-07-26T16:36:25.409Z,0.60
2022-07-26T16:38:52.143Z,1.10
2022-07-26T16:41:21.170Z,1.25
2022-07-26T16:43:47.846Z,3.95
2022-07-26T16:46:15.631Z,2.45
2022-07-26T16:48:43.187Z,2.35
2022-07-26T16:51:10.025Z,0.47
2022-07-26T16:53:36.725Z,0.70
2022-07-26T16:56:03.474Z,1.92
2022-07-26T16:58:30.245Z,0.50
2022-07-26T17:00:57.000Z,0.77
2022-07-26T17:03:25.997Z,2.20
2022-07-26T17:05:52.716Z,3.85
2022-07-26T17:08:21.597Z,0.63
2022-07-26T17:10:48.274Z,3.55
2022-07-26T17:13:14.929Z,0.50
2022-07-26T17:15:41.636Z,1.15
2022-07-26T17:18:08.332Z,0.40
2022-07-26T17:20:35.042Z,0.90
2022-07-26T17:23:01.742Z,2.75
2022-07-26T17:25:28.527Z,1.95
2022-07-26T17:27:55.186Z,1.80
2022-07-26T17:30:21.854Z,2.65
2022-07-26T17:32:50.990Z,0.70
2022-07-26T17:35:19.001Z,0.45
2022-07-26T17:37:45.844Z,0.50
2022-07-26T17:40:14.291Z,0.68
2022-07-26T17:42:43.107Z,4.03
2022-07-26T17:45:10.277Z,0.50
2022-07-26T17:47:37.884Z,2.35
2022-07-26T17:50:35.330Z,0.73
2022-07-26T17:52:53.917Z,4.50
2022-07-26T17:55:23.426Z,2.30
2022-07-26T17:57:51.209Z,2.30
2022-07-26T18:00:20.059Z,1.20
2022-07-26T18:02:47.809Z,0.85
2022-07-26T18:05:15.316Z,1.48
2022-07-26T18:07:42.027Z,1.85
2022-07-26T18:10:10.166Z,0.73
2022-07-26T18:12:36.983Z,0.82
2022-07-26T18:15:03.931Z,1.05
2022-07-26T18:17:30.585Z,1.30
2022-07-26T18:19:57.216Z,1.13
2022-07-26T18:22:24.126Z,2.05
2022-07-26T18:24:50.899Z,0.85
2022-07-26T18:27:17.617Z,4.18
2022-07-26T18:29:44.379Z,1.15
2022-07-26T18:32:11.115Z,0.98
2022-07-26T18:34:37.730Z,1.00
2022-07-26T18:37:05.432Z,1.02
2022-07-26T18:39:34.165Z,0.50
2022-07-26T18:42:01.198Z,0.77
2022-07-26T18:44:29.915Z,1.90
2022-07-26T18:46:57.425Z,2.95
2022-07-26T18:49:30.850Z,1.35
2022-07-26T18:52:02.859Z,0.95
2022-07-26T18:54:32.832Z,0.80
2022-07-26T18:56:59.455Z,0.60
2022-07-26T18:59:26.084Z,1.02
2022-07-26T19:01:52.887Z,0.68
2022-07-26T19:04:19.568Z,0.60
2022-07-26T19:06:50.816Z,1.95
2022-07-26T19:09:17.437Z,0.95
2022-07-26T19:11:47.141Z,0.65
2022-07-26T19:14:13.816Z,1.02
2022-07-26T19:16:40.562Z,2.33
2022-07-26T19:19:07.393Z,1.88
2022-07-26T19:21:34.035Z,1.52
2022-07-26T19:24:00.780Z,3.85
2022-07-26T19:26:27.678Z,1.90
2022-07-26T19:28:54.555Z,4.10
2022-07-26T19:31:24.484Z,0.75
2022-07-26T19:33:53.639Z,1.20
2022-07-26T19:36:26.323Z,3.15
2022-07-26T19:38:56.197Z,0.52
2022-07-26T19:41:22.932Z,0.60
2022-07-26T19:43:49.565Z,1.08
2022-07-26T19:46:16.229Z,5.07
2022-07-26T19:48:42.944Z,2.28
2022-07-26T19:51:09.645Z,1.40
2022-07-26T19:53:36.270Z,1.00
2022-07-26T19:56:03.678Z,5.68
2022-07-26T19:58:30.559Z,0.88
2022-07-26T20:00:57.295Z,1.02
2022-07-26T20:03:23.929Z,2.88
2022-07-26T20:05:50.613Z,4.07
2022-07-26T20:08:17.746Z,0.73
2022-07-26T20:10:44.608Z,1.40
2022-07-26T20:13:11.283Z,1.05
2022-07-26T20:15:37.948Z,0.90
2022-07-26T20:18:04.727Z,3.05
2022-07-26T20:20:31.574Z,1.25
2022-07-26T20:22:58.465Z,4.35
2022-07-26T20:25:25.327Z,0.82
2022-07-26T20:27:52.031Z,2.00
2022-07-26T20:30:18.720Z,0.82
2022-07-26T20:32:45.387Z,1.10
2022-07-26T20:35:12.033Z,0.65
2022-07-26T20:37:38.898Z,0.77
2022-07-26T20:40:07.154Z,2.63
2022-07-26T20:42:35.845Z,0.80
2022-07-26T20:45:04.589Z,3.00
2022-07-26T20:47:31.917Z,0.77
2022-07-26T20:50:03.143Z,1.38
2022-07-26T20:52:30.342Z,1.33
2022-07-26T20:54:56.997Z,0.88
2022-07-26T20:57:23.733Z,0.98
2022-07-26T20:59:50.426Z,2.25
2022-07-26T21:02:17.296Z,1.95
2022-07-26T21:04:45.158Z,1.15
2022-07-26T21:07:11.952Z,0.60
2022-07-26T21:09:38.608Z,3.78
2022-07-26T21:12:05.708Z,0.70
2022-07-26T21:14:32.357Z,3.42
2022-07-26T21:16:59.124Z,3.42
2022-07-26T21:19:25.781Z,4.18
2022-07-26T21:21:54.684Z,4.80
2022-07-26T21:24:21.556Z,3.40
2022-07-26T21:26:48.375Z,1.60
2022-07-26T21:29:15.526Z,4.22
2022-07-26T21:31:42.468Z,0.88
2022-07-26T21:34:10.080Z,1.75
2022-07-26T21:36:40.374Z,1.00
2022-07-26T21:39:08.310Z,1.25
2022-07-26T21:41:35.409Z,1.20
2022-07-26T21:44:04.539Z,2.83
2022-07-26T21:46:32.467Z,4.00
2022-07-26T21:48:59.250Z,0.95
2022-07-26T21:51:26.097Z,3.85
2022-07-26T21:53:52.837Z,2.30
2022-07-26T21:56:19.631Z,1.05
2022-07-26T21:58:46.971Z,0.73
2022-07-26T22:01:14.224Z,0.82
2022-07-26T22:03:42.443Z,2.65
2022-07-26T22:06:10.091Z,0.52
2022-07-26T22:08:41.252Z,1.02
2022-07-26T22:11:08.034Z,0.73
2022-07-26T22:13:35.429Z,0.60
2022-07-26T22:16:02.195Z,0.60
2022-07-26T22:18:28.932Z,0.68
2022-07-26T22:20:55.718Z,3.42
2022-07-26T22:23:31.221Z,3.08
2022-07-26T22:25:59.512Z,2.88
2022-07-26T22:28:26.310Z,1.05
2022-07-26T22:30:53.030Z,3.25
2022-07-26T22:33:19.769Z,0.40
2022-07-26T22:35:46.607Z,0.40
2022-07-26T22:38:13.775Z,1.65
2022-07-26T22:40:41.997Z,0.55
2022-07-26T22:43:10.458Z,0.65
2022-07-26T22:45:39.594Z,0.47
2022-07-26T22:48:09.420Z,2.13
2022-07-26T22:50:36.443Z,0.52
2022-07-26T22:53:03.273Z,1.25
2022-07-26T22:55:30.220Z,0.75
2022-07-26T22:57:57.069Z,1.80
2022-07-26T23:00:24.333Z,0.70
2022-07-26T23:02:51.037Z,0.50
2022-07-26T23:05:17.798Z,0.40
2022-07-26T23:07:47.855Z,2.63
2022-07-26T23:10:15.656Z,1.17
2022-07-26T23:12:42.558Z,0.43
2022-07-26T23:15:10.317Z,1.95
2022-07-26T23:17:37.615Z,0.30
2022-07-26T23:20:06.568Z,2.10
2022-07-26T23:22:33.764Z,1.17
2022-07-26T23:25:00.477Z,0.40
2022-07-26T23:27:27.162Z,0.93
2022-07-26T23:29:53.969Z,1.10
2022-07-26T23:32:21.045Z,0.47
2022-07-26T23:34:47.676Z,0.65
2022-07-26T23:37:16.362Z,0.65
2022-07-26T23:39:43.030Z,3.83
2022-07-26T23:42:09.792Z,1.13
2022-07-26T23:44:37.895Z,3.22
2022-07-26T23:47:04.772Z,2.28
2022-07-26T23:49:31.514Z,1.23
2022-07-26T23:51:58.194Z,3.20
2022-07-26T23:54:24.833Z,0.40
2022-07-26T23:56:51.526Z,2.55
2022-07-26T23:59:18.628Z,3.13
